Pagrindinis puslapis
METAR-TAF:

METAR-TAF

Oro uostai :

Porto Alegrė, Pietų Rio Grandė, Brazilija

platuma: 30-00S, ilguma: 051-11W, Aukštis: 3 m

Dabartinis oras

Ataskaita buvo paskelbta 1 valandą ir 13 minutes, ne 22:00 UTC
Vėjas 9 kt iš Pietų, svyruoja nuo Pietryčių ir Pietų/Pietvakarių
Temperatūra 22°C
Drėgmė 46%
Slėgis 1016 hPa
Matomumas 10 km arba daugiau
nėra debesų žemiau 1500 m ir nėra kamuolinių lietaus debesų

METAR: SBPA 212200Z 18009KT 140V210 CAVOK 22/10 Q1016

Laikas: 20:13 (23:13 UTC)

Prognozė

Ataskaita buvo paskelbta 7 valandos ir 13 minutes, ne 16:00 UTC
Prognozė galioja nuo 21 metu 18 UTC su 22 metu 18 UTC
Vėjas 16 kt iš Pietų
Matomumas 10 km arba daugiau
Išsisklaidę debesys ne aukštis 4000 ft
Tapsmas
nuo 21 metu 21 UTC su 21 metu 23 UTC
Vėjas 8 kt iš Pietų
Matomumas 10 km arba daugiau
nėra debesų žemiau 1500 m ir nėra kamuolinių lietaus debesų

TAF: SBPA 211600Z 2118/2218 19016KT 9999 SCT040 TX25/2118Z TN14/2208Z BECMG 2121/2123 19008KT CAVOK RMK PEB

Orai ataskaitas ir orų prognozės (METAR, TAF).

turimą stotys yra geltonos ir raudonos taškus žemėlapyje.

Perkelti pele per norėdami pamatyti stoties vardą.

Tada spustelėkite, norėdami matyti oro stebėjimo ir prognozės.

Norėdami pakeisti žemėlapį: spustelėkite ant žalios mygtukų su juodo kryžiaus žemyn,; žalią mygtuką su brūkšneliu, jei norite nutolinti; arba žalių rodyklių gretimoms žemėlapius.


METAR-TAF: